createdAt,value
2023-02-05T00:00:47.178Z,1.60
2023-02-05T00:03:13.921Z,1.60
2023-02-05T00:05:40.653Z,1.60
2023-02-05T00:08:07.413Z,1.60
2023-02-05T00:10:34.222Z,1.60
2023-02-05T00:13:00.992Z,1.60
2023-02-05T00:15:27.793Z,1.50
2023-02-05T00:17:54.845Z,1.50
2023-02-05T00:20:21.902Z,1.60
2023-02-05T00:22:48.974Z,1.50
2023-02-05T00:25:15.716Z,1.50
2023-02-05T00:27:42.482Z,1.60
2023-02-05T00:30:09.904Z,1.50
2023-02-05T00:32:37.595Z,1.50
2023-02-05T00:35:04.541Z,1.60
2023-02-05T00:37:31.462Z,1.50
2023-02-05T00:39:58.280Z,1.50
2023-02-05T00:42:25.124Z,1.50
2023-02-05T00:44:51.907Z,1.40
2023-02-05T00:47:18.661Z,1.40
2023-02-05T00:49:45.396Z,1.40
2023-02-05T00:52:12.248Z,1.40
2023-02-05T00:54:39.233Z,1.40
2023-02-05T00:57:06.820Z,1.40
2023-02-05T00:59:33.523Z,1.30
2023-02-05T01:02:00.358Z,1.30
2023-02-05T01:04:27.237Z,1.30
2023-02-05T01:06:54.188Z,1.30
2023-02-05T01:09:22.029Z,1.30
2023-02-05T01:11:48.843Z,1.30
2023-02-05T01:14:17.318Z,1.30
2023-02-05T01:16:44.305Z,1.30
2023-02-05T01:19:11.146Z,1.40
2023-02-05T01:21:38.039Z,1.30
2023-02-05T01:24:05.840Z,1.30
2023-02-05T01:26:32.683Z,1.20
2023-02-05T01:29:00.213Z,1.20
2023-02-05T01:31:29.908Z,1.20
2023-02-05T01:33:56.867Z,1.20
2023-02-05T01:36:23.637Z,1.10
2023-02-05T01:38:50.406Z,1.10
2023-02-05T01:41:17.246Z,1.10
2023-02-05T01:43:44.265Z,1.10
2023-02-05T01:46:17.524Z,1.10
2023-02-05T01:48:45.478Z,1.10
2023-02-05T01:51:13.928Z,1.10
2023-02-05T01:53:41.790Z,1.10
2023-02-05T01:56:11.524Z,1.10
2023-02-05T01:58:58.891Z,1.10
2023-02-05T02:01:26.425Z,1.10
2023-02-05T02:03:54.378Z,1.10
2023-02-05T02:06:21.108Z,1.10
2023-02-05T02:08:47.999Z,1.10
2023-02-05T02:11:17.348Z,1.10
2023-02-05T02:13:45.816Z,1.10
2023-02-05T02:16:12.764Z,1.10
2023-02-05T02:18:39.830Z,1.10
2023-02-05T02:21:12.602Z,1.20
2023-02-05T02:23:39.293Z,1.10
2023-02-05T02:26:06.161Z,1.10
2023-02-05T02:28:35.848Z,1.10
2023-02-05T02:31:05.800Z,1.10
2023-02-05T02:33:41.754Z,1.10
2023-02-05T02:36:27.234Z,1.10
2023-02-05T02:39:02.966Z,1.00
2023-02-05T02:41:56.151Z,1.00
2023-02-05T02:44:33.348Z,1.00
2023-02-05T02:47:03.658Z,1.00
2023-02-05T02:49:32.908Z,1.00
2023-02-05T02:52:00.401Z,1.00
2023-02-05T02:54:27.756Z,1.00
2023-02-05T02:56:55.164Z,1.00
2023-02-05T02:59:24.630Z,1.00
2023-02-05T03:01:57.059Z,1.00
2023-02-05T03:04:30.319Z,1.00
2023-02-05T03:06:59.201Z,1.00
2023-02-05T03:09:29.700Z,1.00
2023-02-05T03:11:56.452Z,1.00
2023-02-05T03:14:24.680Z,1.00
2023-02-05T03:16:52.840Z,1.00
2023-02-05T03:19:20.074Z,1.00
2023-02-05T03:21:49.033Z,1.00
2023-02-05T03:24:17.025Z,1.00
2023-02-05T03:26:43.770Z,1.00
2023-02-05T03:29:18.295Z,1.00
2023-02-05T03:31:52.368Z,1.00
2023-02-05T03:34:39.051Z,1.10
2023-02-05T03:37:18.420Z,1.00
2023-02-05T03:40:04.240Z,1.00
2023-02-05T03:42:40.630Z,1.00
2023-02-05T03:45:22.954Z,1.10
2023-02-05T03:48:11.319Z,1.10
2023-02-05T03:50:41.199Z,1.10
2023-02-05T03:53:08.593Z,1.10
2023-02-05T03:55:38.596Z,1.10
2023-02-05T03:58:12.823Z,1.10
2023-02-05T04:00:40.054Z,1.10
2023-02-05T04:03:06.980Z,1.20
2023-02-05T04:05:35.017Z,1.20
2023-02-05T04:08:03.508Z,1.10
2023-02-05T04:10:35.728Z,1.20
2023-02-05T04:13:03.492Z,1.20
2023-02-05T04:15:31.647Z,1.20
2023-02-05T04:18:00.873Z,1.10
2023-02-05T04:20:29.515Z,1.10
2023-02-05T04:22:56.999Z,1.10
2023-02-05T04:25:24.799Z,1.20
2023-02-05T04:27:53.811Z,1.20
2023-02-05T04:30:20.778Z,1.10
2023-02-05T04:32:48.536Z,1.20
2023-02-05T04:35:17.246Z,1.30
2023-02-05T04:37:45.864Z,1.20
2023-02-05T04:40:13.124Z,1.20
2023-02-05T04:42:39.928Z,1.30
2023-02-05T04:45:06.891Z,1.30
2023-02-05T04:47:34.133Z,1.30
2023-02-05T04:50:01.026Z,1.30
2023-02-05T04:52:27.934Z,1.30
2023-02-05T04:54:54.764Z,1.20
2023-02-05T04:57:21.454Z,1.20
2023-02-05T04:59:48.216Z,1.20
2023-02-05T05:02:14.992Z,1.20
2023-02-05T05:04:43.283Z,1.20
2023-02-05T05:07:10.338Z,1.20
2023-02-05T05:09:37.213Z,1.20
2023-02-05T05:12:04.024Z,1.20
2023-02-05T05:14:30.816Z,1.30
2023-02-05T05:16:57.557Z,1.20
2023-02-05T05:19:24.353Z,1.30
2023-02-05T05:21:51.328Z,1.30
2023-02-05T05:24:18.118Z,1.20
2023-02-05T05:26:45.177Z,1.30
2023-02-05T05:29:12.734Z,1.20
2023-02-05T05:31:39.906Z,1.20
2023-02-05T05:34:06.771Z,1.30
2023-02-05T05:36:33.535Z,1.30
2023-02-05T05:39:20.369Z,1.30
2023-02-05T05:42:09.410Z,1.30
2023-02-05T05:44:36.230Z,1.30
2023-02-05T05:47:03.089Z,1.30
2023-02-05T05:49:29.868Z,1.30
2023-02-05T05:51:56.663Z,1.30
2023-02-05T05:54:23.470Z,1.30
2023-02-05T05:56:50.310Z,1.30
2023-02-05T05:59:17.331Z,1.40
2023-02-05T06:01:44.078Z,1.30
2023-02-05T06:04:10.872Z,1.30
2023-02-05T06:06:38.112Z,1.30
2023-02-05T06:09:04.913Z,1.30
2023-02-05T06:11:31.661Z,1.30
2023-02-05T06:13:58.581Z,1.30
2023-02-05T06:16:25.387Z,1.30
2023-02-05T06:18:52.168Z,1.30
2023-02-05T06:21:19.003Z,1.30
2023-02-05T06:23:45.821Z,1.30
2023-02-05T06:26:12.566Z,1.30
2023-02-05T06:28:39.437Z,1.30
2023-02-05T06:31:06.429Z,1.30
2023-02-05T06:33:33.431Z,1.20
2023-02-05T06:36:00.193Z,1.20
2023-02-05T06:38:26.931Z,1.20
2023-02-05T06:40:53.663Z,1.20
2023-02-05T06:43:20.400Z,1.20
2023-02-05T06:45:47.211Z,1.30
2023-02-05T06:48:14.036Z,1.30
2023-02-05T06:50:40.832Z,1.30
2023-02-05T06:53:07.668Z,1.30
2023-02-05T06:55:34.725Z,1.30
2023-02-05T06:58:01.684Z,1.20
2023-02-05T07:00:28.697Z,1.20
2023-02-05T07:02:56.780Z,1.20
2023-02-05T07:05:23.634Z,1.30
2023-02-05T07:07:50.454Z,1.30
2023-02-05T07:10:17.321Z,1.30
2023-02-05T07:12:44.449Z,1.30
2023-02-05T07:15:11.178Z,1.40
2023-02-05T07:17:39.409Z,1.30
2023-02-05T07:20:06.495Z,1.40
2023-02-05T07:22:33.234Z,1.40
2023-02-05T07:25:02.603Z,1.40
2023-02-05T07:27:30.874Z,1.40
2023-02-05T07:29:57.668Z,1.40
2023-02-05T07:32:24.699Z,1.50
2023-02-05T07:34:51.538Z,1.40
2023-02-05T07:37:19.980Z,1.40
2023-02-05T07:39:48.058Z,1.40
2023-02-05T07:42:14.814Z,1.40
2023-02-05T07:44:49.196Z,1.40
2023-02-05T07:47:16.033Z,1.40
2023-02-05T07:49:42.848Z,1.40
2023-02-05T07:52:09.625Z,1.40
2023-02-05T07:54:36.487Z,1.40
2023-02-05T07:57:04.922Z,1.40
2023-02-05T07:59:38.979Z,1.40
2023-02-05T08:02:05.907Z,1.40
2023-02-05T08:04:32.877Z,1.40
2023-02-05T08:07:02.581Z,1.50
2023-02-05T08:09:29.331Z,1.50
2023-02-05T08:11:56.062Z,1.60
2023-02-05T08:14:22.841Z,1.50
2023-02-05T08:16:49.723Z,1.50
2023-02-05T08:19:17.847Z,1.50
2023-02-05T08:21:48.097Z,1.50
2023-02-05T08:24:14.891Z,1.50
2023-02-05T08:26:42.022Z,1.50
2023-02-05T08:29:09.640Z,1.40
2023-02-05T08:31:37.059Z,1.50
2023-02-05T08:34:04.677Z,1.50
2023-02-05T08:36:31.700Z,1.60
2023-02-05T08:39:02.121Z,1.60
2023-02-05T08:41:28.945Z,1.60
2023-02-05T08:43:56.472Z,1.60
2023-02-05T08:46:50.025Z,1.60
2023-02-05T08:52:58.450Z,1.70
2023-02-05T10:07:06.309Z,2.20
2023-02-05T10:13:32.258Z,2.20
2023-02-05T10:16:32.596Z,2.20
2023-02-05T10:20:25.592Z,2.20
2023-02-05T10:23:16.364Z,2.40
2023-02-05T11:01:49.943Z,2.40
2023-02-05T11:05:07.120Z,2.50
2023-02-05T11:08:03.160Z,2.60
2023-02-05T11:11:34.618Z,2.50
2023-02-05T11:15:22.017Z,2.50
2023-02-05T11:19:04.392Z,2.60
2023-02-05T11:25:25.984Z,2.60
2023-02-05T11:32:04.776Z,2.80
2023-02-05T11:35:50.024Z,2.70
2023-02-05T11:48:41.308Z,2.80
2023-02-05T11:54:28.786Z,2.80
2023-02-05T12:15:38.993Z,3.00
2023-02-05T12:42:30.871Z,3.00
2023-02-05T13:24:48.727Z,3.40
2023-02-05T13:28:22.371Z,3.40
2023-02-05T13:32:19.435Z,3.50
2023-02-05T13:35:33.740Z,3.50
2023-02-05T14:18:06.837Z,3.60
2023-02-05T14:31:49.728Z,3.60
2023-02-05T14:38:26.773Z,3.70
2023-02-05T15:08:27.295Z,3.70
2023-02-05T15:19:57.114Z,3.70
2023-02-05T15:23:04.701Z,3.70
2023-02-05T15:26:17.034Z,3.70
2023-02-05T15:36:21.840Z,3.70
2023-02-05T15:37:29.682Z,3.70
2023-02-05T16:23:45.066Z,3.50
2023-02-05T16:32:47.286Z,3.50
2023-02-05T16:36:02.427Z,3.50
2023-02-05T16:39:09.703Z,3.50
2023-02-05T16:42:02.378Z,3.50
2023-02-05T16:56:24.693Z,3.40
2023-02-05T16:58:55.166Z,3.40
2023-02-05T17:01:27.860Z,3.50
2023-02-05T17:03:55.665Z,3.40
2023-02-05T17:06:23.890Z,3.40
2023-02-05T17:08:53.082Z,3.40
2023-02-05T17:11:39.155Z,3.40
2023-02-05T17:14:26.261Z,3.40
2023-02-05T17:17:03.062Z,3.40
2023-02-05T17:20:08.464Z,3.40
2023-02-05T17:36:58.364Z,3.30
2023-02-05T17:39:45.919Z,3.40
2023-02-05T17:45:41.038Z,3.40
2023-02-05T17:48:13.268Z,3.40
2023-02-05T17:50:51.924Z,3.40
2023-02-05T17:53:25.206Z,3.40
2023-02-05T17:56:13.387Z,3.40
2023-02-05T17:59:41.337Z,3.40
2023-02-05T18:02:23.950Z,3.40
2023-02-05T18:05:21.938Z,3.40
2023-02-05T18:14:47.810Z,3.40
2023-02-05T18:18:03.993Z,3.40
2023-02-05T18:21:11.112Z,3.40
2023-02-05T18:25:00.210Z,3.40
2023-02-05T18:27:41.564Z,3.40
2023-02-05T18:39:04.364Z,3.40
2023-02-05T18:49:12.654Z,3.40
2023-02-05T18:52:21.352Z,3.40
2023-02-05T18:55:22.502Z,3.40
2023-02-05T19:01:17.432Z,3.40
2023-02-05T19:04:39.298Z,3.40
2023-02-05T19:52:59.310Z,3.30
2023-02-05T19:56:31.190Z,3.30
2023-02-05T20:12:47.151Z,3.20
2023-02-05T20:15:38.529Z,3.20
2023-02-05T20:18:23.821Z,3.20
2023-02-05T20:20:50.737Z,3.20
2023-02-05T20:23:17.639Z,3.20
2023-02-05T20:25:52.115Z,3.20
2023-02-05T20:28:19.083Z,3.20
2023-02-05T20:31:04.806Z,3.30
2023-02-05T20:33:33.803Z,3.20
2023-02-05T20:36:04.621Z,3.20
2023-02-05T20:38:31.562Z,3.20
2023-02-05T20:40:59.472Z,3.10
2023-02-05T20:43:26.727Z,3.10
2023-02-05T20:45:53.766Z,3.10
2023-02-05T20:48:20.515Z,3.10
2023-02-05T20:50:47.267Z,3.00
2023-02-05T20:53:14.224Z,3.00
2023-02-05T20:55:40.986Z,3.00
2023-02-05T20:58:08.058Z,2.90
2023-02-05T21:00:35.621Z,2.90
2023-02-05T21:03:02.535Z,2.90
2023-02-05T21:05:30.975Z,2.80
2023-02-05T21:07:58.059Z,2.70
2023-02-05T21:10:24.888Z,2.70
2023-02-05T21:12:51.945Z,2.70
2023-02-05T21:15:21.828Z,2.60
2023-02-05T21:17:48.708Z,2.60
2023-02-05T21:20:19.613Z,2.60
2023-02-05T21:22:46.464Z,2.60
2023-02-05T21:25:13.419Z,2.50
2023-02-05T21:27:41.667Z,2.50
2023-02-05T21:30:12.395Z,2.50
2023-02-05T21:32:39.185Z,2.50
2023-02-05T21:35:06.094Z,2.40
2023-02-05T21:37:37.798Z,2.40
2023-02-05T21:40:09.669Z,2.30
2023-02-05T21:42:59.107Z,2.30
2023-02-05T21:49:04.229Z,2.30
2023-02-05T21:51:49.608Z,2.30
2023-02-05T21:54:41.739Z,2.20
2023-02-05T21:57:08.635Z,2.10
2023-02-05T21:59:40.363Z,2.20
2023-02-05T22:02:26.578Z,2.20
2023-02-05T22:04:53.341Z,2.10
2023-02-05T22:07:20.736Z,2.10
2023-02-05T22:09:47.586Z,2.00
2023-02-05T22:12:14.408Z,2.00
2023-02-05T22:14:41.172Z,2.00
2023-02-05T22:17:08.333Z,1.90
2023-02-05T22:19:37.363Z,1.90
2023-02-05T22:22:06.890Z,1.90
2023-02-05T22:24:33.647Z,1.80
2023-02-05T22:27:00.520Z,1.80
2023-02-05T22:29:27.705Z,1.80
2023-02-05T22:31:54.761Z,1.80
2023-02-05T22:34:21.778Z,1.70
2023-02-05T22:36:49.834Z,1.80
2023-02-05T22:39:16.650Z,1.70
2023-02-05T22:41:43.461Z,1.70
2023-02-05T22:44:10.899Z,1.70
2023-02-05T22:46:44.936Z,1.70
2023-02-05T22:49:12.675Z,1.70
2023-02-05T22:51:39.830Z,1.70
2023-02-05T22:54:14.010Z,1.60
2023-02-05T22:56:40.909Z,1.60
2023-02-05T22:59:08.021Z,1.60
2023-02-05T23:01:37.023Z,1.70
2023-02-05T23:04:06.559Z,1.60
2023-02-05T23:06:35.223Z,1.60
2023-02-05T23:09:27.029Z,1.60
2023-02-05T23:11:55.682Z,1.50
2023-02-05T23:14:22.572Z,1.50
2023-02-05T23:16:49.619Z,1.50
2023-02-05T23:19:18.739Z,1.50
2023-02-05T23:21:47.368Z,1.50
2023-02-05T23:24:14.217Z,1.50
2023-02-05T23:26:42.801Z,1.50
2023-02-05T23:29:10.518Z,1.50
2023-02-05T23:31:37.982Z,1.50
2023-02-05T23:34:07.237Z,1.50
2023-02-05T23:36:39.961Z,1.50
2023-02-05T23:39:06.925Z,1.40
2023-02-05T23:41:37.311Z,1.40
2023-02-05T23:44:12.314Z,1.40
2023-02-05T23:46:39.891Z,1.40
2023-02-05T23:49:06.801Z,1.40
2023-02-05T23:51:33.980Z,1.40
2023-02-05T23:54:01.121Z,1.40
2023-02-05T23:56:29.414Z,1.40
2023-02-05T23:58:56.539Z,1.40
